This is the latest recevied weather packets stored in our database for station/object GBTWP-2. If no packets are shown the sender has not sent any weather packets the latest 10 day(s).
| Time | Temp. | Humidity | Pressure | Rain* | Wind** | Luminosity | Snow |
|---|---|---|---|---|---|---|---|
| 1788445920 | 26.67° C | 79% | 1017.1 hPa | 0 mm | - | 30 W/m² | - |
| 1788445620 | 27.22° C | 77% | 1017.2 hPa | 0 mm | - | 48 W/m² | - |
| 1788445320 | 27.78° C | 76% | 1017 hPa | 0 mm | - | 93 W/m² | - |
| 1788445018 | 29.44° C | 73% | 1017.3 hPa | 0 mm | - | 269 W/m² | - |
| 1788444719 | 28.33° C | 73% | 1017.4 hPa | 0 mm | - | 384 W/m² | - |
| 1788444419 | 27.22° C | 76% | 1017.2 hPa | 0 mm | - | 345 W/m² | - |
| 1788444119 | 26.67° C | 78% | 1017.2 hPa | 0 mm | - | 314 W/m² | - |
| 1788443819 | 26.67° C | 79% | 1017.3 hPa | 0 mm | - | 290 W/m² | - |
| 1788443520 | 26.67° C | 79% | 1017.1 hPa | 0 mm | - | 280 W/m² | - |
| 1788443219 | 25.56° C | 81% | 1017 hPa | 0 mm | - | 276 W/m² | - |
| 1788442919 | 25.56° C | 81% | 1017.5 hPa | 0 mm | - | 267 W/m² | - |
| 1788442620 | 25.56° C | 81% | 1017.4 hPa | 0 mm | - | 250 W/m² | - |
| 1788442319 | 25.56° C | 82% | 1017.5 hPa | 0 mm | - | 266 W/m² | - |
| 1788442020 | 25.56° C | 82% | 1017.5 hPa | 0 mm | - | 207 W/m² | - |
| 1788441719 | 25.56° C | 81% | 1017.4 hPa | 0 mm | - | 83 W/m² | - |
| 1788441417 | 25° C | 83% | 1017.5 hPa | 0 mm | - | 196 W/m² | - |
| 1788441119 | 25° C | 82% | 1017.6 hPa | 0 mm | - | 191 W/m² | - |
| 1788440820 | 25° C | 83% | 1017.5 hPa | 0 mm | - | 167 W/m² | - |
| 1788440519 | 25.56° C | 82% | 1017.3 hPa | 0 mm | - | 161 W/m² | - |
| 1788440220 | 25° C | 83% | 1017.4 hPa | 0 mm | - | 159 W/m² | - |
| 1788439919 | 24.44° C | 85% | 1017.5 hPa | 0 mm | - | 161 W/m² | - |
| 1788439620 | 23.89° C | 85% | 1017.4 hPa | 0 mm | - | 134 W/m² | - |
| 1788439319 | 23.89° C | 87% | 1017.5 hPa | 0 mm | - | 114 W/m² | - |
| 1788439020 | 23.33° C | 88% | 1017.6 hPa | 0 mm | - | 116 W/m² | - |
| 1788438719 | 23.33° C | 88% | 1017.5 hPa | 0 mm | - | 95 W/m² | - |
* Rain latest hour (hover to see other rain measurements)
** Current wind speed in m/s (hover to see current wind gust speed)